sensor_id;sensor_type;location;lat;lon;timestamp;temperature;humidity
72114;SHT31;59989;46.220;19.888;2022-07-17T00:01:15;21.07;47.62
72114;SHT31;59989;46.220;19.888;2022-07-17T00:04:31;21.08;47.13
72114;SHT31;59989;46.220;19.888;2022-07-17T00:07:34;21.08;47.09
72114;SHT31;59989;46.220;19.888;2022-07-17T00:10:38;21.03;47.08
72114;SHT31;59989;46.220;19.888;2022-07-17T00:13:40;20.91;47.14
72114;SHT31;59989;46.220;19.888;2022-07-17T00:16:58;20.81;47.21
72114;SHT31;59989;46.220;19.888;2022-07-17T00:20:00;20.67;47.92
72114;SHT31;59989;46.220;19.888;2022-07-17T00:23:19;20.48;48.61
72114;SHT31;59989;46.220;19.888;2022-07-17T00:27:02;20.38;48.53
72114;SHT31;59989;46.220;19.888;2022-07-17T00:30:34;20.29;48.62
72114;SHT31;59989;46.220;19.888;2022-07-17T00:33:35;20.17;48.81
72114;SHT31;59989;46.220;19.888;2022-07-17T00:36:37;20.14;48.55
72114;SHT31;59989;46.220;19.888;2022-07-17T00:39:42;20.08;48.35
72114;SHT31;59989;46.220;19.888;2022-07-17T00:42:43;20.07;48.41
72114;SHT31;59989;46.220;19.888;2022-07-17T00:46:02;20.08;48.06
72114;SHT31;59989;46.220;19.888;2022-07-17T00:49:06;20.05;47.99
72114;SHT31;59989;46.220;19.888;2022-07-17T00:52:10;20.09;47.52
72114;SHT31;59989;46.220;19.888;2022-07-17T00:55:13;20.01;47.80
72114;SHT31;59989;46.220;19.888;2022-07-17T00:58:36;19.95;48.06
72114;SHT31;59989;46.220;19.888;2022-07-17T01:01:39;19.84;48.41
72114;SHT31;59989;46.220;19.888;2022-07-17T01:04:41;19.74;48.48
72114;SHT31;59989;46.220;19.888;2022-07-17T01:07:44;19.70;48.30
72114;SHT31;59989;46.220;19.888;2022-07-17T01:10:46;19.66;47.99
72114;SHT31;59989;46.220;19.888;2022-07-17T01:13:49;19.61;47.82
72114;SHT31;59989;46.220;19.888;2022-07-17T01:16:52;19.57;47.78
72114;SHT31;59989;46.220;19.888;2022-07-17T01:19:55;19.54;47.57
72114;SHT31;59989;46.220;19.888;2022-07-17T01:22:57;19.60;47.12
72114;SHT31;59989;46.220;19.888;2022-07-17T01:26:00;19.66;46.95
72114;SHT31;59989;46.220;19.888;2022-07-17T01:29:22;19.60;46.80
72114;SHT31;59989;46.220;19.888;2022-07-17T01:36:08;19.69;46.00
72114;SHT31;59989;46.220;19.888;2022-07-17T01:39:24;19.64;46.09
72114;SHT31;59989;46.220;19.888;2022-07-17T01:42:47;19.64;45.94
72114;SHT31;59989;46.220;19.888;2022-07-17T01:46:10;19.63;46.24
72114;SHT31;59989;46.220;19.888;2022-07-17T01:49:34;19.66;45.97
72114;SHT31;59989;46.220;19.888;2022-07-17T01:52:39;19.59;46.23
72114;SHT31;59989;46.220;19.888;2022-07-17T01:55:41;19.59;46.35
72114;SHT31;59989;46.220;19.888;2022-07-17T01:59:04;19.57;46.24
72114;SHT31;59989;46.220;19.888;2022-07-17T02:02:13;19.53;46.38
72114;SHT31;59989;46.220;19.888;2022-07-17T02:05:20;19.46;46.52
72114;SHT31;59989;46.220;19.888;2022-07-17T02:08:43;19.40;46.37
72114;SHT31;59989;46.220;19.888;2022-07-17T02:12:19;19.37;46.58
72114;SHT31;59989;46.220;19.888;2022-07-17T02:16:15;19.37;46.63
72114;SHT31;59989;46.220;19.888;2022-07-17T02:19:31;19.27;46.70
72114;SHT31;59989;46.220;19.888;2022-07-17T02:22:50;19.19;46.82
72114;SHT31;59989;46.220;19.888;2022-07-17T02:25:52;19.15;47.08
72114;SHT31;59989;46.220;19.888;2022-07-17T02:32:18;19.05;47.23
72114;SHT31;59989;46.220;19.888;2022-07-17T02:35:22;19.08;47.48
72114;SHT31;59989;46.220;19.888;2022-07-17T02:38:40;19.02;47.68
72114;SHT31;59989;46.220;19.888;2022-07-17T02:42:20;19.03;47.44
72114;SHT31;59989;46.220;19.888;2022-07-17T02:45:23;19.03;47.51
72114;SHT31;59989;46.220;19.888;2022-07-17T02:48:43;18.92;47.61
72114;SHT31;59989;46.220;19.888;2022-07-17T02:52:21;18.87;47.58
72114;SHT31;59989;46.220;19.888;2022-07-17T02:59:00;18.82;48.14
72114;SHT31;59989;46.220;19.888;2022-07-17T03:02:16;18.85;47.98
72114;SHT31;59989;46.220;19.888;2022-07-17T03:05:32;18.84;47.53
72114;SHT31;59989;46.220;19.888;2022-07-17T03:08:48;18.87;47.87
72114;SHT31;59989;46.220;19.888;2022-07-17T03:11:52;18.84;48.90
72114;SHT31;59989;46.220;19.888;2022-07-17T03:14:55;18.85;48.11
72114;SHT31;59989;46.220;19.888;2022-07-17T03:18:17;18.95;47.14
72114;SHT31;59989;46.220;19.888;2022-07-17T03:21:19;19.06;46.77
72114;SHT31;59989;46.220;19.888;2022-07-17T03:24:22;19.11;46.40
72114;SHT31;59989;46.220;19.888;2022-07-17T03:27:24;19.13;46.66
72114;SHT31;59989;46.220;19.888;2022-07-17T03:30:42;19.09;46.37
72114;SHT31;59989;46.220;19.888;2022-07-17T03:33:44;19.03;46.83
72114;SHT31;59989;46.220;19.888;2022-07-17T03:36:47;18.92;46.98
72114;SHT31;59989;46.220;19.888;2022-07-17T03:40:06;18.76;47.49
72114;SHT31;59989;46.220;19.888;2022-07-17T03:43:29;18.67;47.74
72114;SHT31;59989;46.220;19.888;2022-07-17T03:46:52;18.60;47.66
72114;SHT31;59989;46.220;19.888;2022-07-17T03:49:54;18.57;47.76
72114;SHT31;59989;46.220;19.888;2022-07-17T03:52:57;18.57;47.91
72114;SHT31;59989;46.220;19.888;2022-07-17T03:56:02;18.50;47.87
72114;SHT31;59989;46.220;19.888;2022-07-17T03:59:45;18.43;48.54
72114;SHT31;59989;46.220;19.888;2022-07-17T04:02:48;18.40;48.65
72114;SHT31;59989;46.220;19.888;2022-07-17T04:05:50;18.37;48.70
72114;SHT31;59989;46.220;19.888;2022-07-17T04:08:53;18.33;48.46
72114;SHT31;59989;46.220;19.888;2022-07-17T04:11:56;18.33;48.51
72114;SHT31;59989;46.220;19.888;2022-07-17T04:14:58;18.32;49.37
72114;SHT31;59989;46.220;19.888;2022-07-17T04:18:01;18.27;50.01
72114;SHT31;59989;46.220;19.888;2022-07-17T04:21:05;18.17;50.97
72114;SHT31;59989;46.220;19.888;2022-07-17T04:24:29;18.10;52.09
72114;SHT31;59989;46.220;19.888;2022-07-17T04:27:45;18.07;51.70
72114;SHT31;59989;46.220;19.888;2022-07-17T04:30:48;18.12;52.21
72114;SHT31;59989;46.220;19.888;2022-07-17T04:34:04;18.09;52.02
72114;SHT31;59989;46.220;19.888;2022-07-17T04:37:06;18.10;50.95
72114;SHT31;59989;46.220;19.888;2022-07-17T04:40:10;18.20;50.88
72114;SHT31;59989;46.220;19.888;2022-07-17T04:43:28;18.24;49.55
72114;SHT31;59989;46.220;19.888;2022-07-17T04:46:30;18.36;49.20
72114;SHT31;59989;46.220;19.888;2022-07-17T04:49:33;18.45;48.80
72114;SHT31;59989;46.220;19.888;2022-07-17T04:52:38;18.45;49.18
72114;SHT31;59989;46.220;19.888;2022-07-17T04:55:40;18.47;49.81
72114;SHT31;59989;46.220;19.888;2022-07-17T04:58:42;18.48;49.71
72114;SHT31;59989;46.220;19.888;2022-07-17T05:01:45;18.54;49.47
72114;SHT31;59989;46.220;19.888;2022-07-17T05:08:10;18.68;48.95
72114;SHT31;59989;46.220;19.888;2022-07-17T05:11:33;18.79;48.53
72114;SHT31;59989;46.220;19.888;2022-07-17T05:14:35;18.92;49.00
72114;SHT31;59989;46.220;19.888;2022-07-17T05:17:52;18.99;48.63
72114;SHT31;59989;46.220;19.888;2022-07-17T05:20:54;19.13;47.90
72114;SHT31;59989;46.220;19.888;2022-07-17T05:23:57;19.23;47.82
72114;SHT31;59989;46.220;19.888;2022-07-17T05:27:33;19.24;47.81
72114;SHT31;59989;46.220;19.888;2022-07-17T05:31:09;19.34;47.39
72114;SHT31;59989;46.220;19.888;2022-07-17T05:38:10;19.54;47.23
72114;SHT31;59989;46.220;19.888;2022-07-17T05:41:26;19.69;46.59
72114;SHT31;59989;46.220;19.888;2022-07-17T05:44:42;19.82;46.28
72114;SHT31;59989;46.220;19.888;2022-07-17T05:47:44;19.87;46.00
72114;SHT31;59989;46.220;19.888;2022-07-17T05:51:07;19.95;45.90
72114;SHT31;59989;46.220;19.888;2022-07-17T05:54:15;19.97;45.63
72114;SHT31;59989;46.220;19.888;2022-07-17T05:57:38;20.11;46.06
72114;SHT31;59989;46.220;19.888;2022-07-17T06:00:54;20.22;45.01
72114;SHT31;59989;46.220;19.888;2022-07-17T06:04:10;20.21;44.66
72114;SHT31;59989;46.220;19.888;2022-07-17T06:07:27;20.26;45.56
72114;SHT31;59989;46.220;19.888;2022-07-17T06:10:29;20.45;44.14
72114;SHT31;59989;46.220;19.888;2022-07-17T06:13:32;20.70;43.98
72114;SHT31;59989;46.220;19.888;2022-07-17T06:16:50;20.70;42.60
72114;SHT31;59989;46.220;19.888;2022-07-17T06:19:53;20.81;43.56
72114;SHT31;59989;46.220;19.888;2022-07-17T06:22:56;20.76;42.76
72114;SHT31;59989;46.220;19.888;2022-07-17T06:25:58;20.90;43.39
72114;SHT31;59989;46.220;19.888;2022-07-17T06:29:01;21.12;42.41
72114;SHT31;59989;46.220;19.888;2022-07-17T06:32:44;21.10;41.67
72114;SHT31;59989;46.220;19.888;2022-07-17T06:35:47;21.20;41.89
72114;SHT31;59989;46.220;19.888;2022-07-17T06:38:49;21.44;41.80
72114;SHT31;59989;46.220;19.888;2022-07-17T06:41:52;21.45;41.58
72114;SHT31;59989;46.220;19.888;2022-07-17T06:45:08;21.67;41.60
72114;SHT31;59989;46.220;19.888;2022-07-17T06:48:11;21.73;41.16
72114;SHT31;59989;46.220;19.888;2022-07-17T06:51:28;21.79;41.39
72114;SHT31;59989;46.220;19.888;2022-07-17T06:55:07;21.92;40.63
72114;SHT31;59989;46.220;19.888;2022-07-17T06:58:09;22.00;39.63
72114;SHT31;59989;46.220;19.888;2022-07-17T07:01:12;22.27;40.11
72114;SHT31;59989;46.220;19.888;2022-07-17T07:04:15;22.37;39.67
72114;SHT31;59989;46.220;19.888;2022-07-17T07:07:38;22.84;39.03
72114;SHT31;59989;46.220;19.888;2022-07-17T07:10:41;22.79;38.26
72114;SHT31;59989;46.220;19.888;2022-07-17T07:14:06;23.06;38.73
72114;SHT31;59989;46.220;19.888;2022-07-17T07:17:09;23.30;37.75
72114;SHT31;59989;46.220;19.888;2022-07-17T07:20:26;22.92;38.33
72114;SHT31;59989;46.220;19.888;2022-07-17T07:23:42;23.23;37.57
72114;SHT31;59989;46.220;19.888;2022-07-17T07:27:05;23.27;37.63
72114;SHT31;59989;46.220;19.888;2022-07-17T07:30:08;23.36;37.33
72114;SHT31;59989;46.220;19.888;2022-07-17T07:33:13;23.42;37.13
72114;SHT31;59989;46.220;19.888;2022-07-17T07:36:15;23.40;37.38
72114;SHT31;59989;46.220;19.888;2022-07-17T07:39:17;23.31;36.63
72114;SHT31;59989;46.220;19.888;2022-07-17T07:42:20;23.37;36.87
72114;SHT31;59989;46.220;19.888;2022-07-17T07:48:46;23.63;35.46
72114;SHT31;59989;46.220;19.888;2022-07-17T07:52:03;23.53;35.64
72114;SHT31;59989;46.220;19.888;2022-07-17T07:55:12;23.77;36.03
72114;SHT31;59989;46.220;19.888;2022-07-17T07:58:22;23.78;35.36
72114;SHT31;59989;46.220;19.888;2022-07-17T08:01:25;23.91;34.75
72114;SHT31;59989;46.220;19.888;2022-07-17T08:04:50;23.93;33.74
72114;SHT31;59989;46.220;19.888;2022-07-17T08:07:52;23.91;33.63
72114;SHT31;59989;46.220;19.888;2022-07-17T08:10:55;24.16;33.36
72114;SHT31;59989;46.220;19.888;2022-07-17T08:13:58;24.40;33.00
72114;SHT31;59989;46.220;19.888;2022-07-17T08:17:24;24.62;33.59
72114;SHT31;59989;46.220;19.888;2022-07-17T08:20:26;24.30;33.75
72114;SHT31;59989;46.220;19.888;2022-07-17T08:26:52;24.76;33.54
72114;SHT31;59989;46.220;19.888;2022-07-17T08:30:35;24.98;34.33
72114;SHT31;59989;46.220;19.888;2022-07-17T08:33:38;25.17;33.43
72114;SHT31;59989;46.220;19.888;2022-07-17T08:37:01;24.98;33.76
72114;SHT31;59989;46.220;19.888;2022-07-17T08:40:30;24.94;33.35
72114;SHT31;59989;46.220;19.888;2022-07-17T08:43:33;25.11;32.02
72114;SHT31;59989;46.220;19.888;2022-07-17T08:47:05;25.14;32.47
72114;SHT31;59989;46.220;19.888;2022-07-17T08:50:24;25.53;33.63
72114;SHT31;59989;46.220;19.888;2022-07-17T08:53:28;25.31;32.36
72114;SHT31;59989;46.220;19.888;2022-07-17T08:56:31;25.70;33.09
72114;SHT31;59989;46.220;19.888;2022-07-17T08:59:34;25.80;31.65
72114;SHT31;59989;46.220;19.888;2022-07-17T09:02:38;25.66;31.58
72114;SHT31;59989;46.220;19.888;2022-07-17T09:06:01;25.96;31.63
72114;SHT31;59989;46.220;19.888;2022-07-17T09:12:30;26.08;29.77
72114;SHT31;59989;46.220;19.888;2022-07-17T09:19:06;26.67;28.48
72114;SHT31;59989;46.220;19.888;2022-07-17T09:22:29;26.74;28.87
72114;SHT31;59989;46.220;19.888;2022-07-17T09:25:43;26.69;28.23
72114;SHT31;59989;46.220;19.888;2022-07-17T09:28:46;26.78;29.19
72114;SHT31;59989;46.220;19.888;2022-07-17T09:31:51;26.23;28.83
72114;SHT31;59989;46.220;19.888;2022-07-17T09:34:57;26.58;29.01
72114;SHT31;59989;46.220;19.888;2022-07-17T09:38:00;26.95;28.23
72114;SHT31;59989;46.220;19.888;2022-07-17T09:41:14;27.20;26.26
72114;SHT31;59989;46.220;19.888;2022-07-17T09:44:18;27.54;26.43
72114;SHT31;59989;46.220;19.888;2022-07-17T09:47:22;27.03;27.20
72114;SHT31;59989;46.220;19.888;2022-07-17T09:50:27;26.95;27.68
72114;SHT31;59989;46.220;19.888;2022-07-17T09:53:32;27.42;26.91
72114;SHT31;59989;46.220;19.888;2022-07-17T09:56:37;27.64;27.43
72114;SHT31;59989;46.220;19.888;2022-07-17T09:59:56;27.70;23.06
72114;SHT31;59989;46.220;19.888;2022-07-17T10:06:25;27.65;24.09
72114;SHT31;59989;46.220;19.888;2022-07-17T10:09:30;28.08;23.56
72114;SHT31;59989;46.220;19.888;2022-07-17T10:12:32;28.23;23.31
72114;SHT31;59989;46.220;19.888;2022-07-17T10:15:35;28.35;23.54
72114;SHT31;59989;46.220;19.888;2022-07-17T10:18:40;28.23;23.52
72114;SHT31;59989;46.220;19.888;2022-07-17T10:21:53;28.66;23.29
72114;SHT31;59989;46.220;19.888;2022-07-17T10:25:38;28.84;23.60
72114;SHT31;59989;46.220;19.888;2022-07-17T10:29:00;29.34;22.39
72114;SHT31;59989;46.220;19.888;2022-07-17T10:32:18;28.69;23.67
72114;SHT31;59989;46.220;19.888;2022-07-17T10:35:48;29.27;22.28
72114;SHT31;59989;46.220;19.888;2022-07-17T10:38:52;29.51;22.47
72114;SHT31;59989;46.220;19.888;2022-07-17T10:42:01;29.72;22.00
72114;SHT31;59989;46.220;19.888;2022-07-17T10:45:16;29.86;21.90
72114;SHT31;59989;46.220;19.888;2022-07-17T10:48:39;29.36;22.37
72114;SHT31;59989;46.220;19.888;2022-07-17T10:52:02;29.61;21.69
72114;SHT31;59989;46.220;19.888;2022-07-17T10:55:21;29.42;20.71
72114;SHT31;59989;46.220;19.888;2022-07-17T10:58:45;30.10;20.49
72114;SHT31;59989;46.220;19.888;2022-07-17T11:01:56;30.17;21.76
72114;SHT31;59989;46.220;19.888;2022-07-17T11:05:09;30.27;20.23
72114;SHT31;59989;46.220;19.888;2022-07-17T11:08:26;30.60;19.87
72114;SHT31;59989;46.220;19.888;2022-07-17T11:11:50;29.86;20.61
72114;SHT31;59989;46.220;19.888;2022-07-17T11:15:13;29.83;20.00
72114;SHT31;59989;46.220;19.888;2022-07-17T11:18:20;30.57;19.34
72114;SHT31;59989;46.220;19.888;2022-07-17T11:21:22;30.88;19.72
72114;SHT31;59989;46.220;19.888;2022-07-17T11:24:41;31.27;19.07
72114;SHT31;59989;46.220;19.888;2022-07-17T11:27:44;31.51;18.91
72114;SHT31;59989;46.220;19.888;2022-07-17T11:30:46;30.44;19.88
72114;SHT31;59989;46.220;19.888;2022-07-17T11:37:28;31.77;18.99
72114;SHT31;59989;46.220;19.888;2022-07-17T11:40:31;31.92;20.15
72114;SHT31;59989;46.220;19.888;2022-07-17T11:43:53;31.68;18.71
72114;SHT31;59989;46.220;19.888;2022-07-17T11:46:59;32.39;18.38
72114;SHT31;59989;46.220;19.888;2022-07-17T11:50:11;32.29;19.13
72114;SHT31;59989;46.220;19.888;2022-07-17T11:53:14;31.96;18.36
72114;SHT31;59989;46.220;19.888;2022-07-17T11:56:31;32.22;17.60
72114;SHT31;59989;46.220;19.888;2022-07-17T11:59:33;32.01;18.16
72114;SHT31;59989;46.220;19.888;2022-07-17T12:02:36;32.16;17.61
72114;SHT31;59989;46.220;19.888;2022-07-17T12:06:12;33.90;19.31
72114;SHT31;59989;46.220;19.888;2022-07-17T12:09:35;32.24;18.17
72114;SHT31;59989;46.220;19.888;2022-07-17T12:13:02;31.71;18.10
72114;SHT31;59989;46.220;19.888;2022-07-17T12:16:25;31.94;18.57
72114;SHT31;59989;46.220;19.888;2022-07-17T12:19:29;32.33;19.15
72114;SHT31;59989;46.220;19.888;2022-07-17T12:22:52;32.97;17.48
72114;SHT31;59989;46.220;19.888;2022-07-17T12:26:17;33.21;18.12
72114;SHT31;59989;46.220;19.888;2022-07-17T12:29:22;33.97;16.45
72114;SHT31;59989;46.220;19.888;2022-07-17T12:32:24;34.43;16.45
72114;SHT31;59989;46.220;19.888;2022-07-17T12:35:46;33.61;16.61
72114;SHT31;59989;46.220;19.888;2022-07-17T12:38:51;33.22;15.97
72114;SHT31;59989;46.220;19.888;2022-07-17T12:41:54;34.05;15.44
72114;SHT31;59989;46.220;19.888;2022-07-17T12:45:16;33.65;16.27
72114;SHT31;59989;46.220;19.888;2022-07-17T12:48:19;34.15;15.58
72114;SHT31;59989;46.220;19.888;2022-07-17T12:51:22;35.83;13.96
72114;SHT31;59989;46.220;19.888;2022-07-17T12:54:31;36.27;14.49
72114;SHT31;59989;46.220;19.888;2022-07-17T12:57:34;35.11;15.51
72114;SHT31;59989;46.220;19.888;2022-07-17T13:00:37;35.33;15.11
72114;SHT31;59989;46.220;19.888;2022-07-17T13:03:53;35.91;15.15
72114;SHT31;59989;46.220;19.888;2022-07-17T13:06:56;35.84;15.16
72114;SHT31;59989;46.220;19.888;2022-07-17T13:10:00;36.20;15.09
72114;SHT31;59989;46.220;19.888;2022-07-17T13:20:23;38.80;13.67
72114;SHT31;59989;46.220;19.888;2022-07-17T13:23:26;39.89;12.98
72114;SHT31;59989;46.220;19.888;2022-07-17T13:26:28;39.94;12.85
72114;SHT31;59989;46.220;19.888;2022-07-17T13:29:45;38.09;14.11
72114;SHT31;59989;46.220;19.888;2022-07-17T13:33:07;36.27;15.06
72114;SHT31;59989;46.220;19.888;2022-07-17T13:36:31;37.81;14.13
72114;SHT31;59989;46.220;19.888;2022-07-17T13:39:47;35.80;14.66
72114;SHT31;59989;46.220;19.888;2022-07-17T13:43:03;37.00;14.05
72114;SHT31;59989;46.220;19.888;2022-07-17T13:46:19;37.45;14.22
72114;SHT31;59989;46.220;19.888;2022-07-17T13:49:36;36.53;13.40
72114;SHT31;59989;46.220;19.888;2022-07-17T13:52:38;37.79;13.05
72114;SHT31;59989;46.220;19.888;2022-07-17T13:55:39;39.51;12.45
72114;SHT31;59989;46.220;19.888;2022-07-17T13:58:56;38.56;12.82
72114;SHT31;59989;46.220;19.888;2022-07-17T14:01:58;39.39;12.48
72114;SHT31;59989;46.220;19.888;2022-07-17T14:05:21;39.25;12.32
72114;SHT31;59989;46.220;19.888;2022-07-17T14:08:44;37.75;13.38
72114;SHT31;59989;46.220;19.888;2022-07-17T14:11:47;38.32;13.51
72114;SHT31;59989;46.220;19.888;2022-07-17T14:14:49;37.90;14.12
72114;SHT31;59989;46.220;19.888;2022-07-17T14:17:52;37.26;13.87
72114;SHT31;59989;46.220;19.888;2022-07-17T14:20:54;38.04;13.72
72114;SHT31;59989;46.220;19.888;2022-07-17T14:23:57;40.20;11.92
72114;SHT31;59989;46.220;19.888;2022-07-17T14:27:00;38.94;13.12
72114;SHT31;59989;46.220;19.888;2022-07-17T14:30:23;38.32;13.65
72114;SHT31;59989;46.220;19.888;2022-07-17T14:33:26;37.09;13.96
72114;SHT31;59989;46.220;19.888;2022-07-17T14:36:29;37.90;13.37
72114;SHT31;59989;46.220;19.888;2022-07-17T14:39:52;39.72;12.12
72114;SHT31;59989;46.220;19.888;2022-07-17T14:43:15;41.32;12.11
72114;SHT31;59989;46.220;19.888;2022-07-17T14:46:32;40.03;12.41
72114;SHT31;59989;46.220;19.888;2022-07-17T14:49:36;37.64;13.57
72114;SHT31;59989;46.220;19.888;2022-07-17T14:52:59;38.22;12.96
72114;SHT31;59989;46.220;19.888;2022-07-17T14:56:16;37.57;13.04
72114;SHT31;59989;46.220;19.888;2022-07-17T14:59:32;37.62;12.89
72114;SHT31;59989;46.220;19.888;2022-07-17T15:02:50;37.02;13.52
72114;SHT31;59989;46.220;19.888;2022-07-17T15:06:06;37.82;13.16
72114;SHT31;59989;46.220;19.888;2022-07-17T15:09:28;37.12;13.47
72114;SHT31;59989;46.220;19.888;2022-07-17T15:12:44;37.17;13.67
72114;SHT31;59989;46.220;19.888;2022-07-17T15:16:01;38.80;12.64
72114;SHT31;59989;46.220;19.888;2022-07-17T15:19:18;40.78;11.74
72114;SHT31;59989;46.220;19.888;2022-07-17T15:22:23;40.44;11.95
72114;SHT31;59989;46.220;19.888;2022-07-17T15:25:46;39.92;12.20
72114;SHT31;59989;46.220;19.888;2022-07-17T15:28:49;39.62;12.00
72114;SHT31;59989;46.220;19.888;2022-07-17T15:32:16;38.19;12.92
72114;SHT31;59989;46.220;19.888;2022-07-17T15:35:18;36.57;13.52
72114;SHT31;59989;46.220;19.888;2022-07-17T15:38:21;36.89;13.56
72114;SHT31;59989;46.220;19.888;2022-07-17T15:41:37;36.96;13.47
72114;SHT31;59989;46.220;19.888;2022-07-17T15:45:00;37.19;13.16
72114;SHT31;59989;46.220;19.888;2022-07-17T15:48:05;37.41;13.18
72114;SHT31;59989;46.220;19.888;2022-07-17T15:51:08;38.06;12.57
72114;SHT31;59989;46.220;19.888;2022-07-17T15:54:24;38.39;12.35
72114;SHT31;59989;46.220;19.888;2022-07-17T15:57:27;39.01;12.30
72114;SHT31;59989;46.220;19.888;2022-07-17T16:00:29;39.01;12.82
72114;SHT31;59989;46.220;19.888;2022-07-17T16:03:54;37.53;12.59
72114;SHT31;59989;46.220;19.888;2022-07-17T16:07:18;38.32;12.54
72114;SHT31;59989;46.220;19.888;2022-07-17T16:10:41;38.18;12.47
72114;SHT31;59989;46.220;19.888;2022-07-17T16:13:44;33.25;15.57
72114;SHT31;59989;46.220;19.888;2022-07-17T16:16:47;31.43;16.44
72114;SHT31;59989;46.220;19.888;2022-07-17T16:19:49;30.42;17.14
72114;SHT31;59989;46.220;19.888;2022-07-17T16:22:52;29.69;18.32
72114;SHT31;59989;46.220;19.888;2022-07-17T16:25:54;29.97;18.31
72114;SHT31;59989;46.220;19.888;2022-07-17T16:28:57;30.42;19.22
72114;SHT31;59989;46.220;19.888;2022-07-17T16:32:20;30.61;17.93
72114;SHT31;59989;46.220;19.888;2022-07-17T16:35:23;31.60;17.37
72114;SHT31;59989;46.220;19.888;2022-07-17T16:38:27;33.78;15.44
72114;SHT31;59989;46.220;19.888;2022-07-17T16:41:30;34.48;15.11
72114;SHT31;59989;46.220;19.888;2022-07-17T16:44:32;34.36;15.10
72114;SHT31;59989;46.220;19.888;2022-07-17T16:51:18;34.34;15.55
72114;SHT31;59989;46.220;19.888;2022-07-17T16:54:47;33.93;15.59
72114;SHT31;59989;46.220;19.888;2022-07-17T16:57:54;34.17;15.79
72114;SHT31;59989;46.220;19.888;2022-07-17T17:01:17;30.61;18.15
72114;SHT31;59989;46.220;19.888;2022-07-17T17:04:21;29.06;19.54
72114;SHT31;59989;46.220;19.888;2022-07-17T17:07:24;28.13;20.51
72114;SHT31;59989;46.220;19.888;2022-07-17T17:10:41;27.72;21.39
72114;SHT31;59989;46.220;19.888;2022-07-17T17:17:28;26.88;22.90
72114;SHT31;59989;46.220;19.888;2022-07-17T17:20:31;26.67;23.23
72114;SHT31;59989;46.220;19.888;2022-07-17T17:23:32;26.48;23.41
72114;SHT31;59989;46.220;19.888;2022-07-17T17:26:34;26.37;23.03
72114;SHT31;59989;46.220;19.888;2022-07-17T17:29:55;26.24;24.02
72114;SHT31;59989;46.220;19.888;2022-07-17T17:32:58;26.12;24.38
72114;SHT31;59989;46.220;19.888;2022-07-17T17:36:00;25.99;24.44
72114;SHT31;59989;46.220;19.888;2022-07-17T17:39:21;25.90;24.21
72114;SHT31;59989;46.220;19.888;2022-07-17T17:42:22;25.78;24.64
72114;SHT31;59989;46.220;19.888;2022-07-17T17:45:23;25.66;24.08
72114;SHT31;59989;46.220;19.888;2022-07-17T17:48:25;25.57;24.11
72114;SHT31;59989;46.220;19.888;2022-07-17T17:51:28;25.41;24.48
72114;SHT31;59989;46.220;19.888;2022-07-17T17:54:52;25.14;26.96
72114;SHT31;59989;46.220;19.888;2022-07-17T17:57:54;24.90;31.27
72114;SHT31;59989;46.220;19.888;2022-07-17T18:00:57;24.60;29.04
72114;SHT31;59989;46.220;19.888;2022-07-17T18:04:13;24.39;30.43
72114;SHT31;59989;46.220;19.888;2022-07-17T18:07:16;24.18;28.75
72114;SHT31;59989;46.220;19.888;2022-07-17T18:10:19;24.00;30.29
72114;SHT31;59989;46.220;19.888;2022-07-17T18:13:21;23.87;28.95
72114;SHT31;59989;46.220;19.888;2022-07-17T18:16:44;23.71;30.48
72114;SHT31;59989;46.220;19.888;2022-07-17T18:19:47;23.56;31.49
72114;SHT31;59989;46.220;19.888;2022-07-17T18:22:49;23.42;30.77
72114;SHT31;59989;46.220;19.888;2022-07-17T18:26:07;23.27;31.88
72114;SHT31;59989;46.220;19.888;2022-07-17T18:29:14;23.13;31.65
72114;SHT31;59989;46.220;19.888;2022-07-17T18:32:17;23.03;31.82
72114;SHT31;59989;46.220;19.888;2022-07-17T18:35:20;22.94;31.56
72114;SHT31;59989;46.220;19.888;2022-07-17T18:38:23;22.87;31.72
72114;SHT31;59989;46.220;19.888;2022-07-17T18:45:09;22.69;33.84
72114;SHT31;59989;46.220;19.888;2022-07-17T18:48:13;22.54;31.77
72114;SHT31;59989;46.220;19.888;2022-07-17T18:51:16;22.48;31.01
72114;SHT31;59989;46.220;19.888;2022-07-17T18:54:18;22.31;31.33
72114;SHT31;59989;46.220;19.888;2022-07-17T18:57:21;22.16;31.51
72114;SHT31;59989;46.220;19.888;2022-07-17T19:00:24;22.06;31.74
72114;SHT31;59989;46.220;19.888;2022-07-17T19:10:47;21.59;35.03
72114;SHT31;59989;46.220;19.888;2022-07-17T19:14:18;21.45;36.37
72114;SHT31;59989;46.220;19.888;2022-07-17T19:18:11;21.18;39.63
72114;SHT31;59989;46.220;19.888;2022-07-17T19:22:03;20.93;37.17
72114;SHT31;59989;46.220;19.888;2022-07-17T19:25:21;21.20;34.63
72114;SHT31;59989;46.220;19.888;2022-07-17T19:28:24;21.14;35.09
72114;SHT31;59989;46.220;19.888;2022-07-17T19:31:42;20.97;35.09
72114;SHT31;59989;46.220;19.888;2022-07-17T19:34:45;20.86;34.67
72114;SHT31;59989;46.220;19.888;2022-07-17T19:37:47;20.81;36.36
72114;SHT31;59989;46.220;19.888;2022-07-17T19:41:23;20.59;35.77
72114;SHT31;59989;46.220;19.888;2022-07-17T19:44:24;20.50;36.03
72114;SHT31;59989;46.220;19.888;2022-07-17T19:48:35;20.29;37.52
72114;SHT31;59989;46.220;19.888;2022-07-17T19:51:40;20.09;36.78
72114;SHT31;59989;46.220;19.888;2022-07-17T19:58:07;19.91;39.21
72114;SHT31;59989;46.220;19.888;2022-07-17T20:01:11;19.80;39.68
72114;SHT31;59989;46.220;19.888;2022-07-17T20:04:14;19.75;40.76
72114;SHT31;59989;46.220;19.888;2022-07-17T20:07:16;19.66;40.52
72114;SHT31;59989;46.220;19.888;2022-07-17T20:10:18;19.57;41.09
72114;SHT31;59989;46.220;19.888;2022-07-17T20:13:21;19.43;41.69
72114;SHT31;59989;46.220;19.888;2022-07-17T20:16:24;19.33;40.63
72114;SHT31;59989;46.220;19.888;2022-07-17T20:19:27;19.19;42.71
72114;SHT31;59989;46.220;19.888;2022-07-17T20:22:49;19.18;43.63
72114;SHT31;59989;46.220;19.888;2022-07-17T20:26:06;19.09;43.04
72114;SHT31;59989;46.220;19.888;2022-07-17T20:29:28;18.99;43.34
72114;SHT31;59989;46.220;19.888;2022-07-17T20:32:33;18.94;44.54
72114;SHT31;59989;46.220;19.888;2022-07-17T20:35:36;18.85;45.17
72114;SHT31;59989;46.220;19.888;2022-07-17T20:38:58;18.85;45.59
72114;SHT31;59989;46.220;19.888;2022-07-17T20:42:01;18.76;47.74
72114;SHT31;59989;46.220;19.888;2022-07-17T20:45:04;18.68;44.87
72114;SHT31;59989;46.220;19.888;2022-07-17T20:48:07;18.68;45.03
72114;SHT31;59989;46.220;19.888;2022-07-17T20:51:12;18.64;44.85
72114;SHT31;59989;46.220;19.888;2022-07-17T20:54:14;18.58;47.14